Terminal Aerodrome Forecast
Issued by NWS Jackson, MS

Home | Current Version | Previous Version | Text Only | Print | Product List | Glossary On
Versions: 1 2 3 4 5 6 7 8 9 10 11 12 13 14 15 16 17
000
FTUS44 KJAN 170500
TAFHBG
TAF
KHBG 170522Z 1706/1806 00000KT P6SM SCT250
     FM171100 10008KT 5SM BR BKN007
     FM171400 11010KT P6SM BKN020
     FM171700 12008KT P6SM BKN035
     FM172000 10006KT P6SM OVC050
     FM180400 10004KT P6SM OVC015=

USA.gov is the U.S. government's official web portal to all federal, state and local government web resources and services.